Terminal Aerodrome Forecast
Issued by NWS Mt. Holly, NJ

Home | Current Version | Previous Version | Text Only | Print | Product List | Glossary On
Versions: 1 2 3 4 5 6 7 8 9 10 11 12 13 14 15
000
FTAK31 PANC 162338
TAFABE
TAF
PABE 162338Z 1700/1724 01008KT P6SM SCT100
     FM170200 35012KT P6SM SCT020 BKN060
     FM170400 33014G22KT 2SM -SN BR BKN008 OVC015
     FM171000 34013KT 5SM -SN BR BKN020 OVC035
     FM172100 33015G25KT 1SM -SN BKN005 OVC011=

USA.gov is the U.S. government's official web portal to all federal, state and local government web resources and services.